createdAt,value
2022-08-27T00:00:17.939Z,100353.63
2022-08-27T00:02:45.708Z,100353.63
2022-08-27T00:05:14.761Z,100350.03
2022-08-27T00:07:42.864Z,100357.16
2022-08-27T00:10:17.300Z,100347.28
2022-08-27T00:12:44.019Z,100347.34
2022-08-27T00:15:11.743Z,100349.13
2022-08-27T00:17:46.561Z,100349.13
2022-08-27T00:20:15.586Z,100352.72
2022-08-27T00:22:42.389Z,100354.50
2022-08-27T00:25:09.400Z,100355.41
2022-08-27T00:27:36.740Z,100356.28
2022-08-27T00:30:05.649Z,100353.59
2022-08-27T00:32:32.195Z,100356.28
2022-08-27T00:34:58.776Z,100360.78
2022-08-27T00:37:25.428Z,100360.72
2022-08-27T00:39:52.167Z,100363.50
2022-08-27T00:42:18.721Z,100363.50
2022-08-27T00:44:45.273Z,100366.19
2022-08-27T00:47:22.882Z,100361.72
2022-08-27T00:49:54.476Z,100368.00
2022-08-27T00:52:31.727Z,100363.59
2022-08-27T00:55:09.239Z,100366.31
2022-08-27T00:57:39.018Z,100377.16
2022-08-27T01:00:12.153Z,100370.06
2022-08-27T01:02:38.850Z,100375.53
2022-08-27T01:05:11.936Z,100379.13
2022-08-27T01:07:41.473Z,100378.22
2022-08-27T01:10:14.031Z,100379.97
2022-08-27T01:12:40.642Z,100377.34
2022-08-27T01:15:14.938Z,100377.38
2022-08-27T01:17:47.880Z,100377.44
2022-08-27T01:20:19.818Z,100376.56
2022-08-27T01:22:53.276Z,100380.19
2022-08-27T01:25:21.595Z,100382.03
2022-08-27T01:27:48.308Z,100365.94
2022-08-27T01:30:18.622Z,100370.47
2022-08-27T01:32:46.397Z,100363.31
2022-08-27T01:35:16.179Z,100365.13
2022-08-27T01:37:45.667Z,100362.47
2022-08-27T01:40:16.856Z,100363.47
2022-08-27T01:42:47.685Z,100359.00
2022-08-27T01:45:21.233Z,100361.69
2022-08-27T01:47:47.780Z,100366.13
2022-08-27T01:50:21.738Z,100369.72
2022-08-27T01:52:49.451Z,100370.72
2022-08-27T01:55:19.595Z,100377.94
2022-08-27T01:57:46.877Z,100374.41
2022-08-27T02:00:20.765Z,100381.63
2022-08-27T02:02:48.093Z,100379.03
2022-08-27T02:05:15.509Z,100369.25
2022-08-27T02:07:42.540Z,100378.28
2022-08-27T02:10:13.050Z,100378.28
2022-08-27T02:12:39.592Z,100373.78
2022-08-27T02:15:06.926Z,100373.78
2022-08-27T02:17:34.332Z,100372.94
2022-08-27T02:20:00.924Z,100368.59
2022-08-27T02:22:28.237Z,100373.13
2022-08-27T02:24:54.706Z,100379.41
2022-08-27T02:27:21.377Z,100384.88
2022-08-27T02:29:48.978Z,100390.25
2022-08-27T02:32:17.620Z,100386.72
2022-08-27T02:34:50.595Z,100389.44
2022-08-27T02:37:17.213Z,100393.03
2022-08-27T02:39:46.065Z,100393.94
2022-08-27T02:42:12.744Z,100385.88
2022-08-27T02:44:39.533Z,100384.97
2022-08-27T02:47:06.993Z,100393.94
2022-08-27T02:49:34.220Z,100395.69
2022-08-27T02:52:00.758Z,100400.19
2022-08-27T02:54:27.704Z,100394.88
2022-08-27T02:56:55.164Z,100391.34
2022-08-27T02:59:21.945Z,100392.25
2022-08-27T03:01:49.133Z,100394.91
2022-08-27T03:04:16.569Z,100395.75
2022-08-27T03:06:43.073Z,100397.59
2022-08-27T03:09:10.491Z,100388.66
2022-08-27T03:11:37.331Z,100394.03
2022-08-27T03:14:03.976Z,100398.50
2022-08-27T03:16:34.508Z,100386.88
2022-08-27T03:19:01.181Z,100388.72
2022-08-27T03:21:27.746Z,100383.44
2022-08-27T03:23:54.278Z,100386.16
2022-08-27T03:26:22.263Z,100385.28
2022-08-27T03:28:48.713Z,100382.69
2022-08-27T03:31:22.579Z,100384.56
2022-08-27T03:33:49.107Z,100375.72
2022-08-27T03:36:15.587Z,100382.88
2022-08-27T03:38:42.085Z,100371.31
2022-08-27T03:41:08.646Z,100385.63
2022-08-27T03:43:35.601Z,100379.41
2022-08-27T03:46:02.524Z,100388.34
2022-08-27T03:48:31.769Z,100380.34
2022-08-27T03:50:58.422Z,100387.47
2022-08-27T03:53:25.949Z,100374.09
2022-08-27T03:55:52.567Z,100381.25
2022-08-27T03:58:19.133Z,100378.59
2022-08-27T04:00:45.950Z,100373.28
2022-08-27T04:03:14.102Z,100367.91
2022-08-27T04:05:42.523Z,100373.28
2022-08-27T04:08:12.397Z,100374.19
2022-08-27T04:10:40.284Z,100366.13
2022-08-27T04:13:06.857Z,100364.31
2022-08-27T04:15:33.525Z,100363.44
2022-08-27T04:18:00.172Z,100369.72
2022-08-27T04:20:35.764Z,100364.34
2022-08-27T04:23:03.608Z,100363.44
2022-08-27T04:25:30.195Z,100375.03
2022-08-27T04:27:56.956Z,100377.72
2022-08-27T04:30:23.704Z,100383.13
2022-08-27T04:32:50.703Z,100385.00
2022-08-27T04:35:17.603Z,100381.44
2022-08-27T04:37:44.397Z,100382.31
2022-08-27T04:40:12.456Z,100381.44
2022-08-27T04:42:39.032Z,100391.31
2022-08-27T04:45:06.321Z,100390.50
2022-08-27T04:47:33.186Z,100386.91
2022-08-27T04:49:59.686Z,100381.56
2022-08-27T04:52:27.042Z,100386.94
2022-08-27T04:54:53.936Z,100385.16
2022-08-27T04:57:21.006Z,100391.41
2022-08-27T04:59:48.019Z,100385.16
2022-08-27T05:02:14.692Z,100377.09
2022-08-27T05:04:41.314Z,100382.47
2022-08-27T05:07:09.532Z,100388.81
2022-08-27T05:09:36.316Z,100384.34
2022-08-27T05:12:03.340Z,100393.28
2022-08-27T05:14:30.444Z,100394.19
2022-08-27T05:17:00.377Z,100401.34
2022-08-27T05:19:27.426Z,100401.25
2022-08-27T05:21:54.460Z,100397.66
2022-08-27T05:24:21.745Z,100403.88
2022-08-27T05:26:49.745Z,100403.84
2022-08-27T05:29:16.916Z,100401.09
2022-08-27T05:31:43.880Z,100407.38
2022-08-27T05:34:19.029Z,100395.75
2022-08-27T05:36:53.303Z,100401.94
2022-08-27T05:39:19.984Z,100401.03
2022-08-27T05:41:46.550Z,100400.13
2022-08-27T05:44:39.721Z,100389.38
2022-08-27T05:46:59.869Z,100392.06
2022-08-27T05:49:26.526Z,100392.97
2022-08-27T05:51:53.144Z,100392.91
2022-08-27T05:54:20.205Z,100399.13
2022-08-27T05:56:49.349Z,100397.34
2022-08-27T05:59:34.587Z,100391.06
2022-08-27T06:02:02.351Z,100395.47
2022-08-27T06:04:29.434Z,100390.97
2022-08-27T06:06:56.452Z,100388.22
2022-08-27T06:09:25.961Z,100389.06
2022-08-27T06:11:58.054Z,100389.94
2022-08-27T06:14:25.043Z,100397.06
2022-08-27T06:16:51.976Z,100392.56
2022-08-27T06:19:18.598Z,100395.31
2022-08-27T06:21:45.781Z,100402.41
2022-08-27T06:24:13.021Z,100396.19
2022-08-27T06:26:42.364Z,100397.94
2022-08-27T06:29:09.957Z,100397.00
2022-08-27T06:31:38.696Z,100398.75
2022-08-27T06:34:08.610Z,100401.47
2022-08-27T06:36:42.267Z,100405.06
2022-08-27T06:39:13.265Z,100400.59
2022-08-27T06:41:41.121Z,100395.22
2022-08-27T06:44:11.544Z,100405.00
2022-08-27T06:46:38.805Z,100410.38
2022-08-27T06:49:06.653Z,100418.47
2022-08-27T06:51:35.445Z,100413.16
2022-08-27T06:54:06.377Z,100415.00
2022-08-27T06:56:33.628Z,100414.13
2022-08-27T06:59:03.313Z,100422.22
2022-08-27T07:01:36.502Z,100423.09
2022-08-27T07:04:06.582Z,100429.28
2022-08-27T07:06:34.735Z,100419.50
2022-08-27T07:09:01.758Z,100425.81
2022-08-27T07:11:31.862Z,100432.13
2022-08-27T07:13:59.440Z,100431.13
2022-08-27T07:16:28.065Z,100431.09
2022-08-27T07:19:03.902Z,100431.97
2022-08-27T07:21:32.187Z,100430.28
2022-08-27T07:24:04.608Z,100435.66
2022-08-27T07:26:34.656Z,100441.03
2022-08-27T07:29:01.645Z,100437.44
2022-08-27T07:31:28.173Z,100442.81
2022-08-27T07:33:55.163Z,100449.06
2022-08-27T07:36:22.527Z,100439.16
2022-08-27T07:38:56.963Z,100443.50
2022-08-27T07:41:32.671Z,100443.38
2022-08-27T07:44:25.977Z,100442.31
2022-08-27T07:46:57.371Z,100441.28
2022-08-27T07:49:25.509Z,100446.56
2022-08-27T07:51:52.386Z,100442.97
2022-08-27T07:54:21.581Z,100450.94
2022-08-27T07:56:55.330Z,100451.81
2022-08-27T07:59:24.681Z,100456.25
2022-08-27T08:01:51.837Z,100453.56
2022-08-27T08:04:20.425Z,100454.38
2022-08-27T08:06:47.201Z,100454.25
2022-08-27T08:09:13.746Z,100463.13
2022-08-27T08:11:40.363Z,100465.81
2022-08-27T08:14:06.898Z,100466.75
2022-08-27T08:16:33.491Z,100465.91
2022-08-27T08:19:02.890Z,100472.22
2022-08-27T08:21:30.598Z,100470.28
2022-08-27T08:23:57.136Z,100467.59
2022-08-27T08:26:23.966Z,100467.09
2022-08-27T08:28:50.539Z,100469.06
2022-08-27T08:31:17.183Z,100467.63
2022-08-27T08:33:43.769Z,100468.88
2022-08-27T08:36:13.887Z,100477.91
2022-08-27T08:38:41.640Z,100472.78
2022-08-27T08:41:36.969Z,100477.25
2022-08-27T08:44:12.771Z,100477.25
2022-08-27T08:47:09.985Z,100485.41
2022-08-27T08:49:43.417Z,100488.97
2022-08-27T08:52:31.120Z,100485.38
2022-08-27T08:55:15.277Z,100484.41
2022-08-27T08:58:20.148Z,100482.50
2022-08-27T09:00:57.513Z,100484.19
2022-08-27T09:03:24.518Z,100484.03
2022-08-27T09:06:02.680Z,100491.00
2022-08-27T09:08:40.492Z,100484.56
2022-08-27T09:11:39.295Z,100485.38
2022-08-27T09:14:17.962Z,100476.38
2022-08-27T09:16:44.481Z,100488.00
2022-08-27T09:19:12.962Z,100485.31
2022-08-27T09:22:14.940Z,100492.38
2022-08-27T09:24:52.613Z,100483.38
2022-08-27T09:27:20.929Z,100491.28
2022-08-27T09:29:55.697Z,100497.47
2022-08-27T09:32:28.408Z,100496.63
2022-08-27T09:34:59.976Z,100499.09
2022-08-27T09:37:34.056Z,100499.06
2022-08-27T09:40:13.717Z,100498.13
2022-08-27T09:42:53.321Z,100497.19
2022-08-27T09:45:23.366Z,100502.44
2022-08-27T09:47:54.126Z,100493.50
2022-08-27T09:50:31.519Z,100497.94
2022-08-27T09:53:00.035Z,100493.50
2022-08-27T09:55:40.585Z,100495.25
2022-08-27T09:58:15.968Z,100496.97
2022-08-27T10:00:42.755Z,100491.56
2022-08-27T10:03:10.893Z,100492.41
2022-08-27T10:05:43.585Z,100497.69
2022-08-27T10:08:41.727Z,100495.03
2022-08-27T10:11:19.128Z,100495.09
2022-08-27T10:14:15.852Z,100491.66
2022-08-27T10:17:14.867Z,100498.88
2022-08-27T10:20:12.122Z,100493.59
2022-08-27T10:23:05.461Z,100496.44
2022-08-27T10:25:54.636Z,100493.94
2022-08-27T10:28:40.870Z,100501.09
2022-08-27T10:31:17.783Z,100509.16
2022-08-27T10:33:54.131Z,100494.88
2022-08-27T10:36:38.077Z,100500.28
2022-08-27T10:39:23.748Z,100511.13
2022-08-27T10:42:08.785Z,100503.06
2022-08-27T10:45:04.350Z,100503.03
2022-08-27T10:47:52.166Z,100504.81
2022-08-27T10:50:28.456Z,100507.47
2022-08-27T10:53:08.509Z,100511.88
2022-08-27T10:55:42.175Z,100507.41
2022-08-27T10:58:29.243Z,100510.00
2022-08-27T11:01:25.966Z,100510.78
2022-08-27T11:04:18.501Z,100520.59
2022-08-27T11:07:07.153Z,100515.16
2022-08-27T11:09:56.620Z,100509.72
2022-08-27T11:12:42.478Z,100517.81
2022-08-27T11:15:44.181Z,100516.97
2022-08-27T11:18:37.247Z,100519.50
2022-08-27T11:21:34.604Z,100525.72
2022-08-27T11:24:35.292Z,100526.56
2022-08-27T11:27:05.787Z,100524.72
2022-08-27T11:29:38.809Z,100526.50
2022-08-27T11:32:31.504Z,100531.00
2022-08-27T11:35:01.977Z,100530.94
2022-08-27T11:37:48.836Z,100534.56
2022-08-27T11:40:30.204Z,100533.69
2022-08-27T11:43:04.709Z,100534.47
2022-08-27T11:45:38.360Z,100546.03
2022-08-27T11:48:23.928Z,100533.50
2022-08-27T11:51:00.762Z,100541.53
2022-08-27T11:53:52.067Z,100540.66
2022-08-27T11:56:33.415Z,100542.19
2022-08-27T11:59:25.108Z,100540.25
2022-08-27T12:01:55.630Z,100536.56
2022-08-27T12:04:42.536Z,100541.75
2022-08-27T12:07:15.015Z,100533.53
2022-08-27T12:09:56.343Z,100537.81
2022-08-27T12:12:52.762Z,100536.97
2022-08-27T12:15:46.810Z,100544.13
2022-08-27T12:18:32.480Z,100533.44
2022-08-27T12:21:11.093Z,100544.13
2022-08-27T12:24:10.142Z,100539.63
2022-08-27T12:26:43.287Z,100543.28
2022-08-27T12:29:29.232Z,100538.69
2022-08-27T12:32:04.618Z,100540.38
2022-08-27T12:34:43.195Z,100530.38
2022-08-27T12:37:11.796Z,100539.28
2022-08-27T12:39:40.334Z,100531.22
2022-08-27T12:42:15.945Z,100531.06
2022-08-27T12:44:42.399Z,100535.22
2022-08-27T12:47:16.962Z,100536.78
2022-08-27T12:49:58.990Z,100535.69
2022-08-27T12:52:56.300Z,100544.44
2022-08-27T12:55:29.787Z,100537.13
2022-08-27T12:58:04.119Z,100535.72
2022-08-27T13:00:48.354Z,100524.72
2022-08-27T13:03:35.504Z,100530.63
2022-08-27T13:06:02.139Z,100531.09
2022-08-27T13:08:36.225Z,100524.44
2022-08-27T13:11:33.188Z,100526.19
2022-08-27T13:14:12.143Z,100528.09
2022-08-27T13:16:45.745Z,100528.16
2022-08-27T13:19:24.134Z,100529.94
2022-08-27T13:21:53.995Z,100532.53
2022-08-27T13:24:34.295Z,100525.41
2022-08-27T13:27:03.996Z,100537.19
2022-08-27T13:29:31.235Z,100531.81
2022-08-27T13:31:59.352Z,100528.47
2022-08-27T13:34:30.349Z,100526.84
2022-08-27T13:37:05.971Z,100534.16
2022-08-27T13:39:38.165Z,100531.56
2022-08-27T13:42:07.475Z,100527.97
2022-08-27T13:44:37.516Z,100523.53
2022-08-27T13:47:18.181Z,100521.63
2022-08-27T13:49:44.989Z,100524.94
2022-08-27T13:52:36.600Z,100514.00
2022-08-27T13:55:07.921Z,100522.78
2022-08-27T13:57:47.675Z,100521.16
2022-08-27T14:00:18.906Z,100522.06
2022-08-27T14:02:54.172Z,100519.47
2022-08-27T14:05:22.834Z,100529.31
2022-08-27T14:07:55.816Z,100527.59
2022-08-27T14:10:38.093Z,100522.34
2022-08-27T14:13:18.199Z,100528.75
2022-08-27T14:15:49.982Z,100530.50
2022-08-27T14:18:58.421Z,100526.72
2022-08-27T14:21:22.793Z,100524.13
2022-08-27T14:23:50.056Z,100527.69
2022-08-27T14:26:17.458Z,100530.25
2022-08-27T14:28:44.949Z,100528.28
2022-08-27T14:31:12.171Z,100522.59
2022-08-27T14:33:39.151Z,100525.91
2022-08-27T14:36:06.400Z,100523.88
2022-08-27T14:38:39.500Z,100518.38
2022-08-27T14:41:08.100Z,100525.53
2022-08-27T14:43:34.731Z,100523.88
2022-08-27T14:46:03.002Z,100522.22
2022-08-27T14:48:32.425Z,100521.41
2022-08-27T14:51:02.380Z,100523.19
2022-08-27T14:53:28.975Z,100530.31
2022-08-27T14:55:58.830Z,100521.34
2022-08-27T14:58:25.728Z,100533.91
2022-08-27T15:00:52.353Z,100525.72
2022-08-27T15:03:19.890Z,100521.97
2022-08-27T15:05:46.403Z,100523.69
2022-08-27T15:08:15.861Z,100524.53
2022-08-27T15:10:42.752Z,100529.06
2022-08-27T15:13:11.310Z,100523.75
2022-08-27T15:15:38.772Z,100532.66
2022-08-27T15:18:05.842Z,100528.91
2022-08-27T15:20:33.033Z,100527.81
2022-08-27T15:22:59.653Z,100523.91
2022-08-27T15:25:26.704Z,100528.97
2022-08-27T15:27:54.175Z,100532.34
2022-08-27T15:30:26.122Z,100528.72
2022-08-27T15:32:53.079Z,100532.50
2022-08-27T15:35:23.259Z,100530.81
2022-08-27T15:37:49.825Z,100524.28
2022-08-27T15:40:18.600Z,100517.03
2022-08-27T15:42:48.795Z,100526.06
2022-08-27T15:45:15.394Z,100526.06
2022-08-27T15:47:41.935Z,100532.41
2022-08-27T15:50:09.002Z,100530.75
2022-08-27T15:52:41.294Z,100531.00
2022-08-27T15:55:19.733Z,100526.66
2022-08-27T15:57:46.539Z,100532.16
2022-08-27T16:00:13.634Z,100529.66
2022-08-27T16:02:41.785Z,100525.31
2022-08-27T16:05:10.292Z,100535.38
2022-08-27T16:07:36.885Z,100526.50
2022-08-27T16:10:04.671Z,100532.78
2022-08-27T16:12:31.246Z,100531.00
2022-08-27T16:14:57.991Z,100533.69
2022-08-27T16:17:26.525Z,100531.81
2022-08-27T16:19:53.464Z,100531.66
2022-08-27T16:22:20.298Z,100523.44
2022-08-27T16:24:46.808Z,100536.78
2022-08-27T16:27:13.287Z,100536.59
2022-08-27T16:29:39.729Z,100528.31
2022-08-27T16:32:11.312Z,100529.97
2022-08-27T16:34:39.182Z,100535.06
2022-08-27T16:37:05.726Z,100526.69
2022-08-27T16:39:35.422Z,100525.53
2022-08-27T16:42:04.808Z,100536.94
2022-08-27T16:44:31.926Z,100538.97
2022-08-27T16:46:58.474Z,100532.75
2022-08-27T16:49:43.413Z,100542.34
2022-08-27T16:52:10.081Z,100533.94
2022-08-27T16:54:37.012Z,100540.72
2022-08-27T16:57:04.575Z,100543.72
2022-08-27T16:59:31.108Z,100550.22
2022-08-27T17:01:57.717Z,100547.91
2022-08-27T17:04:31.185Z,100548.22
2022-08-27T17:06:59.117Z,100550.31
2022-08-27T17:09:26.268Z,100558.53
2022-08-27T17:11:57.048Z,100553.31
2022-08-27T17:14:24.407Z,100552.53
2022-08-27T17:16:53.909Z,100555.22
2022-08-27T17:19:22.341Z,100557.03
2022-08-27T17:21:50.585Z,100554.34
2022-08-27T17:24:17.556Z,100548.06
2022-08-27T17:26:44.303Z,100557.94
2022-08-27T17:29:11.018Z,100556.13
2022-08-27T17:31:40.376Z,100564.22
2022-08-27T17:34:12.066Z,100558.88
2022-08-27T17:36:38.641Z,100561.84
2022-08-27T17:39:05.199Z,100558.50
2022-08-27T17:41:36.668Z,100563.22
2022-08-27T17:44:09.503Z,100573.31
2022-08-27T17:46:36.012Z,100567.28
2022-08-27T17:49:02.876Z,100571.94
2022-08-27T17:51:29.653Z,100572.16
2022-08-27T17:54:01.548Z,100574.13
2022-08-27T17:56:29.185Z,100576.06
2022-08-27T17:58:56.152Z,100573.56
2022-08-27T18:01:28.736Z,100577.22
2022-08-27T18:03:56.721Z,100581.81
2022-08-27T18:06:24.262Z,100580.00
2022-08-27T18:08:51.064Z,100584.53
2022-08-27T18:11:18.082Z,100583.69
2022-08-27T18:13:48.067Z,100580.16
2022-08-27T18:16:16.838Z,100585.66
2022-08-27T18:18:43.434Z,100573.16
2022-08-27T18:21:10.140Z,100583.91
2022-08-27T18:23:37.108Z,100581.28
2022-08-27T18:26:05.430Z,100581.34
2022-08-27T18:28:34.049Z,100592.19
2022-08-27T18:31:03.721Z,100589.63
2022-08-27T18:33:33.217Z,100589.81
2022-08-27T18:35:59.748Z,100601.59
2022-08-27T18:38:26.811Z,100605.31
2022-08-27T18:40:54.718Z,100600.06
2022-08-27T18:43:26.843Z,100608.31
2022-08-27T18:45:53.384Z,100603.03
2022-08-27T18:48:22.469Z,100606.78
2022-08-27T18:50:55.562Z,100601.53
2022-08-27T18:53:22.194Z,100599.84
2022-08-27T18:55:50.532Z,100601.69
2022-08-27T18:58:18.225Z,100596.41
2022-08-27T19:00:50.400Z,100609.00
2022-08-27T19:03:24.887Z,100601.88
2022-08-27T19:05:54.945Z,100605.56
2022-08-27T19:08:23.008Z,100619.09
2022-08-27T19:10:49.524Z,100614.75
2022-08-27T19:13:16.403Z,100622.97
2022-08-27T19:15:49.703Z,100620.50
2022-08-27T19:18:18.008Z,100627.84
2022-08-27T19:20:44.898Z,100622.69
2022-08-27T19:23:11.399Z,100631.81
2022-08-27T19:25:37.928Z,100630.22
2022-08-27T19:28:04.565Z,100633.88
2022-08-27T19:30:31.679Z,100633.09
2022-08-27T19:32:58.536Z,100632.34
2022-08-27T19:35:25.427Z,100635.16
2022-08-27T19:37:53.005Z,100640.59
2022-08-27T19:40:22.002Z,100641.56
2022-08-27T19:42:49.606Z,100644.31
2022-08-27T19:45:16.274Z,100649.69
2022-08-27T19:47:50.323Z,100648.75
2022-08-27T19:50:17.365Z,100646.09
2022-08-27T19:52:44.197Z,100649.69
2022-08-27T19:55:14.108Z,100648.84
2022-08-27T19:57:43.314Z,100643.59
2022-08-27T20:00:12.594Z,100643.69
2022-08-27T20:02:39.742Z,100650.91
2022-08-27T20:05:23.003Z,100643.88
2022-08-27T20:07:51.732Z,100654.75
2022-08-27T20:10:21.619Z,100653.94
2022-08-27T20:12:48.786Z,100650.44
2022-08-27T20:15:15.836Z,100642.44
2022-08-27T20:17:43.758Z,100655.06
2022-08-27T20:20:12.045Z,100656.03
2022-08-27T20:22:42.615Z,100655.22
2022-08-27T20:25:10.784Z,100662.47
2022-08-27T20:27:37.473Z,100659.88
2022-08-27T20:30:04.956Z,100669.78
2022-08-27T20:32:31.456Z,100673.41
2022-08-27T20:34:58.047Z,100673.47
2022-08-27T20:37:24.731Z,100675.34
2022-08-27T20:39:52.671Z,100681.66
2022-08-27T20:42:20.085Z,100673.72
2022-08-27T20:44:46.988Z,100673.75
2022-08-27T20:47:13.661Z,100678.28
2022-08-27T20:49:41.536Z,100678.38
2022-08-27T20:52:11.761Z,100687.34
2022-08-27T20:54:38.838Z,100680.25
2022-08-27T20:57:05.814Z,100690.16
2022-08-27T20:59:50.892Z,100684.94
2022-08-27T21:02:22.885Z,100693.06
2022-08-27T21:04:49.658Z,100694.94
2022-08-27T21:07:17.944Z,100698.56
2022-08-27T21:09:55.991Z,100690.59
2022-08-27T21:12:26.401Z,100693.34
2022-08-27T21:14:55.892Z,100700.53
2022-08-27T21:17:27.739Z,100705.06
2022-08-27T21:19:55.214Z,100704.25
2022-08-27T21:22:22.372Z,100698.91
2022-08-27T21:24:49.077Z,100710.56
2022-08-27T21:27:17.152Z,100715.97
2022-08-27T21:29:47.272Z,100703.53
2022-08-27T21:32:14.804Z,100701.81
2022-08-27T21:34:41.882Z,100706.31
2022-08-27T21:37:09.379Z,100707.28
2022-08-27T21:39:37.844Z,100703.78
2022-08-27T21:42:05.111Z,100708.28
2022-08-27T21:44:31.692Z,100716.28
2022-08-27T21:46:58.856Z,100719.94
2022-08-27T21:49:25.370Z,100719.06
2022-08-27T21:51:52.148Z,100712.81
2022-08-27T21:54:18.903Z,100722.56
2022-08-27T21:56:45.526Z,100718.97
2022-08-27T21:59:12.015Z,100714.53
2022-08-27T22:01:39.311Z,100719.00
2022-08-27T22:04:06.072Z,100719.03
2022-08-27T22:06:33.207Z,100723.50
2022-08-27T22:09:00.271Z,100719.00
2022-08-27T22:11:27.314Z,100720.78
2022-08-27T22:13:58.180Z,100727.00
2022-08-27T22:16:24.945Z,100726.09
2022-08-27T22:18:54.904Z,100720.75
2022-08-27T22:21:21.800Z,100728.84
2022-08-27T22:23:51.250Z,100724.41
2022-08-27T22:26:18.700Z,100722.66
2022-08-27T22:28:45.329Z,100726.34
2022-08-27T22:31:12.082Z,100720.19
2022-08-27T22:33:38.748Z,100722.94
2022-08-27T22:36:05.406Z,100723.91
2022-08-27T22:38:32.079Z,100723.09
2022-08-27T22:40:59.434Z,100716.97
2022-08-27T22:43:27.893Z,100720.56
2022-08-27T22:45:54.516Z,100726.88
2022-08-27T22:48:21.221Z,100721.59
2022-08-27T22:50:47.895Z,100719.84
2022-08-27T22:53:14.882Z,100720.78
2022-08-27T22:55:41.449Z,100724.44
2022-08-27T22:58:08.087Z,100724.47
2022-08-27T23:00:36.726Z,100728.09
2022-08-27T23:03:06.239Z,100721.94
2022-08-27T23:05:40.283Z,100732.59
2022-08-27T23:08:11.003Z,100725.53
2022-08-27T23:10:38.346Z,100726.44
2022-08-27T23:13:06.895Z,100728.25
2022-08-27T23:15:33.840Z,100717.59
2022-08-27T23:18:01.521Z,100724.78
2022-08-27T23:20:28.495Z,100731.94
2022-08-27T23:22:55.916Z,100723.97
2022-08-27T23:25:43.549Z,100724.00
2022-08-27T23:28:14.870Z,100724.91
2022-08-27T23:30:43.881Z,100727.63
2022-08-27T23:33:11.157Z,100719.63
2022-08-27T23:35:37.758Z,100724.13
2022-08-27T23:38:04.977Z,100719.69
2022-08-27T23:40:31.704Z,100723.28
2022-08-27T23:42:58.423Z,100720.66
2022-08-27T23:45:26.275Z,100726.88
2022-08-27T23:47:53.385Z,100728.69
2022-08-27T23:50:20.469Z,100726.03
2022-08-27T23:52:49.657Z,100726.94
2022-08-27T23:55:16.209Z,100728.72
2022-08-27T23:57:43.385Z,100730.50
